sensor_id;sensor_type;location;lat;lon;timestamp;P1;durP1;ratioP1;P2;durP2;ratioP2
4428;SDS011;2227;47.810;8.810;2024-03-02T00:00:39;728.05;;;559.15;;
4428;SDS011;2227;47.810;8.810;2024-03-02T00:03:07;731.60;;;547.08;;
4428;SDS011;2227;47.810;8.810;2024-03-02T00:05:36;725.60;;;558.70;;
4428;SDS011;2227;47.810;8.810;2024-03-02T00:08:02;729.70;;;555.33;;
4428;SDS011;2227;47.810;8.810;2024-03-02T00:10:36;735.72;;;557.00;;
4428;SDS011;2227;47.810;8.810;2024-03-02T00:13:06;729.75;;;563.10;;
4428;SDS011;2227;47.810;8.810;2024-03-02T00:18:14;726.30;;;565.13;;
4428;SDS011;2227;47.810;8.810;2024-03-02T00:20:46;725.42;;;563.90;;
4428;SDS011;2227;47.810;8.810;2024-03-02T00:23:16;725.53;;;564.30;;
4428;SDS011;2227;47.810;8.810;2024-03-02T00:25:51;723.50;;;580.90;;
4428;SDS011;2227;47.810;8.810;2024-03-02T00:28:20;721.53;;;573.45;;
4428;SDS011;2227;47.810;8.810;2024-03-02T05:33:38;728.38;;;551.08;;
4428;SDS011;2227;47.810;8.810;2024-03-02T05:36:05;723.20;;;545.92;;
4428;SDS011;2227;47.810;8.810;2024-03-02T05:38:36;723.05;;;551.28;;
4428;SDS011;2227;47.810;8.810;2024-03-02T05:41:03;727.30;;;551.97;;
4428;SDS011;2227;47.810;8.810;2024-03-02T05:43:30;721.83;;;549.97;;
4428;SDS011;2227;47.810;8.810;2024-03-02T05:45:57;735.65;;;547.17;;
4428;SDS011;2227;47.810;8.810;2024-03-02T05:48:24;732.00;;;556.97;;
4428;SDS011;2227;47.810;8.810;2024-03-02T05:50:51;735.95;;;551.55;;
4428;SDS011;2227;47.810;8.810;2024-03-02T05:53:18;726.37;;;548.97;;
4428;SDS011;2227;47.810;8.810;2024-03-02T05:55:44;737.05;;;551.45;;
4428;SDS011;2227;47.810;8.810;2024-03-02T05:58:11;748.67;;;545.83;;
4428;SDS011;2227;47.810;8.810;2024-03-02T06:00:38;744.20;;;544.87;;
4428;SDS011;2227;47.810;8.810;2024-03-02T06:03:05;746.25;;;536.78;;
4428;SDS011;2227;47.810;8.810;2024-03-02T06:05:32;748.97;;;535.15;;
4428;SDS011;2227;47.810;8.810;2024-03-02T06:07:59;746.60;;;535.72;;
4428;SDS011;2227;47.810;8.810;2024-03-02T06:10:25;749.42;;;528.67;;
4428;SDS011;2227;47.810;8.810;2024-03-02T06:12:52;741.13;;;532.00;;
4428;SDS011;2227;47.810;8.810;2024-03-02T06:15:19;736.33;;;535.38;;
4428;SDS011;2227;47.810;8.810;2024-03-02T06:17:46;740.00;;;531.22;;
4428;SDS011;2227;47.810;8.810;2024-03-02T06:20:12;733.47;;;530.80;;
4428;SDS011;2227;47.810;8.810;2024-03-02T06:22:39;736.10;;;534.25;;
4428;SDS011;2227;47.810;8.810;2024-03-02T06:25:06;735.15;;;534.22;;
4428;SDS011;2227;47.810;8.810;2024-03-02T06:27:34;742.50;;;539.27;;
4428;SDS011;2227;47.810;8.810;2024-03-02T06:30:01;733.78;;;537.85;;
4428;SDS011;2227;47.810;8.810;2024-03-02T06:32:27;729.67;;;542.70;;
4428;SDS011;2227;47.810;8.810;2024-03-02T06:34:54;728.80;;;537.97;;
4428;SDS011;2227;47.810;8.810;2024-03-02T06:37:21;747.15;;;547.22;;
4428;SDS011;2227;47.810;8.810;2024-03-02T06:39:48;747.10;;;537.83;;
4428;SDS011;2227;47.810;8.810;2024-03-02T06:42:14;738.72;;;546.60;;
4428;SDS011;2227;47.810;8.810;2024-03-02T06:44:41;730.45;;;549.33;;
4428;SDS011;2227;47.810;8.810;2024-03-02T06:47:08;713.28;;;546.80;;
4428;SDS011;2227;47.810;8.810;2024-03-02T06:49:35;713.92;;;542.90;;
4428;SDS011;2227;47.810;8.810;2024-03-02T06:52:02;719.63;;;545.10;;
4428;SDS011;2227;47.810;8.810;2024-03-02T06:54:29;727.88;;;542.42;;
4428;SDS011;2227;47.810;8.810;2024-03-02T06:56:55;740.60;;;551.03;;
4428;SDS011;2227;47.810;8.810;2024-03-02T06:59:22;726.83;;;548.30;;
4428;SDS011;2227;47.810;8.810;2024-03-02T07:01:50;732.83;;;543.00;;
4428;SDS011;2227;47.810;8.810;2024-03-02T07:04:17;727.33;;;543.47;;
4428;SDS011;2227;47.810;8.810;2024-03-02T07:06:44;733.63;;;545.13;;
4428;SDS011;2227;47.810;8.810;2024-03-02T07:09:11;735.85;;;551.42;;
4428;SDS011;2227;47.810;8.810;2024-03-02T07:11:38;733.97;;;550.72;;
4428;SDS011;2227;47.810;8.810;2024-03-02T07:14:04;721.45;;;549.00;;
4428;SDS011;2227;47.810;8.810;2024-03-02T07:16:31;738.07;;;544.27;;
4428;SDS011;2227;47.810;8.810;2024-03-02T07:18:59;727.17;;;548.38;;
4428;SDS011;2227;47.810;8.810;2024-03-02T07:21:28;724.15;;;545.28;;
4428;SDS011;2227;47.810;8.810;2024-03-02T07:23:55;721.00;;;546.70;;
4428;SDS011;2227;47.810;8.810;2024-03-02T07:26:21;730.45;;;538.13;;
4428;SDS011;2227;47.810;8.810;2024-03-02T07:28:52;717.88;;;548.83;;
4428;SDS011;2227;47.810;8.810;2024-03-02T07:31:18;719.90;;;550.38;;
4428;SDS011;2227;47.810;8.810;2024-03-02T07:33:45;708.65;;;554.42;;
4428;SDS011;2227;47.810;8.810;2024-03-02T07:36:13;724.05;;;550.70;;
4428;SDS011;2227;47.810;8.810;2024-03-02T07:38:40;708.25;;;549.15;;
4428;SDS011;2227;47.810;8.810;2024-03-02T07:41:07;718.60;;;556.65;;
4428;SDS011;2227;47.810;8.810;2024-03-02T07:43:34;711.55;;;554.55;;
4428;SDS011;2227;47.810;8.810;2024-03-02T07:46:01;706.97;;;554.93;;
4428;SDS011;2227;47.810;8.810;2024-03-02T07:48:29;704.83;;;552.83;;
4428;SDS011;2227;47.810;8.810;2024-03-02T07:50:57;703.63;;;551.25;;
4428;SDS011;2227;47.810;8.810;2024-03-02T07:53:24;705.75;;;557.38;;
4428;SDS011;2227;47.810;8.810;2024-03-02T07:55:50;706.72;;;555.55;;
4428;SDS011;2227;47.810;8.810;2024-03-02T07:58:17;703.90;;;555.90;;
4428;SDS011;2227;47.810;8.810;2024-03-02T08:00:45;715.25;;;559.47;;
4428;SDS011;2227;47.810;8.810;2024-03-02T08:03:13;713.08;;;566.92;;
4428;SDS011;2227;47.810;8.810;2024-03-02T08:05:41;706.45;;;559.25;;
4428;SDS011;2227;47.810;8.810;2024-03-02T08:08:07;710.93;;;562.17;;
4428;SDS011;2227;47.810;8.810;2024-03-02T08:10:34;710.83;;;560.33;;
4428;SDS011;2227;47.810;8.810;2024-03-02T08:13:02;710.65;;;557.60;;
4428;SDS011;2227;47.810;8.810;2024-03-02T08:15:28;711.95;;;553.10;;
4428;SDS011;2227;47.810;8.810;2024-03-02T08:17:55;714.42;;;561.08;;
4428;SDS011;2227;47.810;8.810;2024-03-02T08:20:22;716.80;;;562.30;;
4428;SDS011;2227;47.810;8.810;2024-03-02T08:22:49;715.15;;;550.28;;
4428;SDS011;2227;47.810;8.810;2024-03-02T08:25:16;716.00;;;557.78;;
4428;SDS011;2227;47.810;8.810;2024-03-02T08:27:43;713.15;;;566.70;;
4428;SDS011;2227;47.810;8.810;2024-03-02T08:30:11;713.70;;;556.67;;
4428;SDS011;2227;47.810;8.810;2024-03-02T08:32:38;722.05;;;556.13;;
4428;SDS011;2227;47.810;8.810;2024-03-02T08:35:05;714.80;;;563.28;;
4428;SDS011;2227;47.810;8.810;2024-03-02T08:37:32;711.17;;;565.75;;
4428;SDS011;2227;47.810;8.810;2024-03-02T08:39:59;714.33;;;574.47;;
4428;SDS011;2227;47.810;8.810;2024-03-02T08:42:27;716.47;;;585.80;;
4428;SDS011;2227;47.810;8.810;2024-03-02T08:44:54;718.22;;;590.65;;
4428;SDS011;2227;47.810;8.810;2024-03-02T08:47:21;715.15;;;595.75;;
4428;SDS011;2227;47.810;8.810;2024-03-02T08:49:48;718.22;;;601.58;;
4428;SDS011;2227;47.810;8.810;2024-03-02T08:52:14;715.17;;;583.05;;
4428;SDS011;2227;47.810;8.810;2024-03-02T08:54:41;721.90;;;601.83;;
4428;SDS011;2227;47.810;8.810;2024-03-02T08:57:08;722.92;;;604.35;;
4428;SDS011;2227;47.810;8.810;2024-03-02T08:59:35;725.20;;;605.03;;
4428;SDS011;2227;47.810;8.810;2024-03-02T09:02:02;728.45;;;605.88;;
4428;SDS011;2227;47.810;8.810;2024-03-02T09:04:28;728.25;;;608.78;;
4428;SDS011;2227;47.810;8.810;2024-03-02T09:07:00;735.28;;;607.72;;
4428;SDS011;2227;47.810;8.810;2024-03-02T09:09:27;722.45;;;610.88;;
4428;SDS011;2227;47.810;8.810;2024-03-02T09:11:53;724.08;;;603.47;;
4428;SDS011;2227;47.810;8.810;2024-03-02T09:14:24;723.83;;;613.23;;
4428;SDS011;2227;47.810;8.810;2024-03-02T09:16:51;716.50;;;609.50;;
4428;SDS011;2227;47.810;8.810;2024-03-02T09:19:18;716.35;;;601.30;;
4428;SDS011;2227;47.810;8.810;2024-03-02T09:21:45;714.50;;;610.03;;
4428;SDS011;2227;47.810;8.810;2024-03-02T09:24:11;719.60;;;614.60;;
4428;SDS011;2227;47.810;8.810;2024-03-02T09:26:43;716.60;;;617.67;;
4428;SDS011;2227;47.810;8.810;2024-03-02T09:29:10;716.92;;;620.42;;
4428;SDS011;2227;47.810;8.810;2024-03-02T09:31:40;725.25;;;624.40;;
4428;SDS011;2227;47.810;8.810;2024-03-02T09:34:08;728.47;;;629.70;;
4428;SDS011;2227;47.810;8.810;2024-03-02T09:36:35;724.73;;;629.27;;
4428;SDS011;2227;47.810;8.810;2024-03-02T09:39:01;725.30;;;632.30;;
4428;SDS011;2227;47.810;8.810;2024-03-02T09:41:30;722.40;;;628.73;;
4428;SDS011;2227;47.810;8.810;2024-03-02T09:43:56;716.22;;;628.33;;
4428;SDS011;2227;47.810;8.810;2024-03-02T09:46:24;719.22;;;624.50;;
4428;SDS011;2227;47.810;8.810;2024-03-02T09:48:51;720.70;;;626.80;;
4428;SDS011;2227;47.810;8.810;2024-03-02T09:51:18;721.63;;;637.78;;
4428;SDS011;2227;47.810;8.810;2024-03-02T09:53:46;721.67;;;636.63;;
4428;SDS011;2227;47.810;8.810;2024-03-02T09:56:13;723.97;;;643.58;;
4428;SDS011;2227;47.810;8.810;2024-03-02T09:58:42;728.10;;;648.30;;
4428;SDS011;2227;47.810;8.810;2024-03-02T10:01:10;712.58;;;633.53;;
4428;SDS011;2227;47.810;8.810;2024-03-02T10:03:37;713.90;;;634.78;;
4428;SDS011;2227;47.810;8.810;2024-03-02T10:06:27;719.13;;;640.17;;
4428;SDS011;2227;47.810;8.810;2024-03-02T10:08:54;725.33;;;645.78;;
4428;SDS011;2227;47.810;8.810;2024-03-02T10:11:28;722.50;;;643.60;;
4428;SDS011;2227;47.810;8.810;2024-03-02T10:14:04;727.33;;;648.45;;
4428;SDS011;2227;47.810;8.810;2024-03-02T10:16:35;720.72;;;642.22;;
4428;SDS011;2227;47.810;8.810;2024-03-02T10:19:15;728.25;;;649.45;;
4428;SDS011;2227;47.810;8.810;2024-03-02T10:21:50;736.53;;;657.35;;
4428;SDS011;2227;47.810;8.810;2024-03-02T10:24:18;756.03;;;676.60;;
4428;SDS011;2227;47.810;8.810;2024-03-02T10:26:46;769.53;;;689.90;;
4428;SDS011;2227;47.810;8.810;2024-03-02T10:29:13;770.60;;;690.58;;
4428;SDS011;2227;47.810;8.810;2024-03-02T10:31:43;765.72;;;686.13;;
4428;SDS011;2227;47.810;8.810;2024-03-02T10:34:12;767.95;;;688.35;;
4428;SDS011;2227;47.810;8.810;2024-03-02T10:36:42;766.22;;;686.33;;
4428;SDS011;2227;47.810;8.810;2024-03-02T10:39:12;784.88;;;704.40;;
4428;SDS011;2227;47.810;8.810;2024-03-02T10:41:40;792.28;;;711.83;;
4428;SDS011;2227;47.810;8.810;2024-03-02T10:44:08;796.27;;;716.53;;
4428;SDS011;2227;47.810;8.810;2024-03-02T10:46:36;819.90;;;739.50;;
4428;SDS011;2227;47.810;8.810;2024-03-02T10:49:04;823.30;;;743.90;;
4428;SDS011;2227;47.810;8.810;2024-03-02T10:51:34;845.50;;;766.30;;
4428;SDS011;2227;47.810;8.810;2024-03-02T11:04:21;916.78;;;836.63;;
4428;SDS011;2227;47.810;8.810;2024-03-02T11:06:51;917.60;;;837.10;;
4428;SDS011;2227;47.810;8.810;2024-03-02T11:09:24;935.60;;;854.60;;
4428;SDS011;2227;47.810;8.810;2024-03-02T11:19:17;979.05;;;897.55;;
4428;SDS011;2227;47.810;8.810;2024-03-02T11:26:53;978.50;;;898.10;;
4428;SDS011;2227;47.810;8.810;2024-03-02T11:32:03;982.60;;;900.60;;
4428;SDS011;2227;47.810;8.810;2024-03-02T11:34:34;985.00;;;904.45;;
4428;SDS011;2227;47.810;8.810;2024-03-02T11:37:02;999.00;;;918.83;;
4428;SDS011;2227;47.810;8.810;2024-03-02T12:14:36;1048.00;;;970.00;;
4428;SDS011;2227;47.810;8.810;2024-03-02T12:17:05;1047.20;;;969.00;;
4428;SDS011;2227;47.810;8.810;2024-03-02T12:19:32;1051.90;;;972.60;;
4428;SDS011;2227;47.810;8.810;2024-03-02T13:06:19;1034.67;;;954.17;;
4428;SDS011;2227;47.810;8.810;2024-03-02T13:08:46;1000.78;;;921.78;;
4428;SDS011;2227;47.810;8.810;2024-03-02T13:11:14;978.97;;;900.17;;
4428;SDS011;2227;47.810;8.810;2024-03-02T13:13:42;978.10;;;898.80;;
4428;SDS011;2227;47.810;8.810;2024-03-02T13:16:09;975.03;;;895.38;;
4428;SDS011;2227;47.810;8.810;2024-03-02T13:18:38;972.13;;;892.83;;
4428;SDS011;2227;47.810;8.810;2024-03-02T13:21:05;966.42;;;888.13;;
4428;SDS011;2227;47.810;8.810;2024-03-02T13:23:32;964.63;;;886.83;;
4428;SDS011;2227;47.810;8.810;2024-03-02T13:25:59;974.42;;;896.53;;
4428;SDS011;2227;47.810;8.810;2024-03-02T13:28:26;970.92;;;893.20;;
4428;SDS011;2227;47.810;8.810;2024-03-02T13:30:53;975.38;;;897.88;;
4428;SDS011;2227;47.810;8.810;2024-03-02T13:33:20;970.17;;;893.00;;
4428;SDS011;2227;47.810;8.810;2024-03-02T13:35:51;978.08;;;900.47;;
4428;SDS011;2227;47.810;8.810;2024-03-02T13:38:18;986.72;;;909.50;;
4428;SDS011;2227;47.810;8.810;2024-03-02T13:40:46;1016.38;;;938.08;;
4428;SDS011;2227;47.810;8.810;2024-03-02T13:43:17;1000.30;;;922.40;;
4428;SDS011;2227;47.810;8.810;2024-03-02T13:45:45;1016.70;;;938.42;;
4428;SDS011;2227;47.810;8.810;2024-03-02T13:48:12;979.72;;;903.03;;
4428;SDS011;2227;47.810;8.810;2024-03-02T13:50:41;998.72;;;921.00;;
4428;SDS011;2227;47.810;8.810;2024-03-02T13:53:08;970.05;;;893.08;;
4428;SDS011;2227;47.810;8.810;2024-03-02T13:55:35;969.88;;;892.88;;
4428;SDS011;2227;47.810;8.810;2024-03-02T13:58:02;967.75;;;890.22;;
4428;SDS011;2227;47.810;8.810;2024-03-02T14:00:29;969.28;;;892.08;;
4428;SDS011;2227;47.810;8.810;2024-03-02T14:02:56;967.80;;;890.10;;
4428;SDS011;2227;47.810;8.810;2024-03-02T14:05:23;968.05;;;890.45;;
4428;SDS011;2227;47.810;8.810;2024-03-02T14:07:49;972.75;;;895.25;;
4428;SDS011;2227;47.810;8.810;2024-03-02T14:10:16;972.60;;;895.22;;
4428;SDS011;2227;47.810;8.810;2024-03-02T14:12:48;969.88;;;891.92;;
4428;SDS011;2227;47.810;8.810;2024-03-02T14:15:15;965.63;;;888.15;;
4428;SDS011;2227;47.810;8.810;2024-03-02T14:17:45;970.33;;;892.25;;
4428;SDS011;2227;47.810;8.810;2024-03-02T14:20:11;971.67;;;893.43;;
4428;SDS011;2227;47.810;8.810;2024-03-02T14:22:39;973.15;;;894.28;;
4428;SDS011;2227;47.810;8.810;2024-03-02T14:25:06;969.30;;;890.22;;
4428;SDS011;2227;47.810;8.810;2024-03-02T14:27:34;966.30;;;887.00;;
4428;SDS011;2227;47.810;8.810;2024-03-02T14:30:21;961.33;;;882.20;;
4428;SDS011;2227;47.810;8.810;2024-03-02T14:32:48;964.03;;;884.63;;
4428;SDS011;2227;47.810;8.810;2024-03-02T14:35:15;963.10;;;883.40;;
4428;SDS011;2227;47.810;8.810;2024-03-02T14:37:42;956.80;;;876.70;;
4428;SDS011;2227;47.810;8.810;2024-03-02T14:40:09;957.30;;;877.50;;
4428;SDS011;2227;47.810;8.810;2024-03-02T14:42:37;952.55;;;873.13;;
4428;SDS011;2227;47.810;8.810;2024-03-02T14:45:04;950.08;;;869.83;;
4428;SDS011;2227;47.810;8.810;2024-03-02T14:47:31;942.28;;;861.97;;
4428;SDS011;2227;47.810;8.810;2024-03-02T14:49:59;924.33;;;844.73;;
4428;SDS011;2227;47.810;8.810;2024-03-02T14:52:27;920.80;;;842.67;;
4428;SDS011;2227;47.810;8.810;2024-03-02T14:54:53;922.67;;;844.22;;
4428;SDS011;2227;47.810;8.810;2024-03-02T14:57:20;911.50;;;832.75;;
4428;SDS011;2227;47.810;8.810;2024-03-02T14:59:47;909.10;;;829.75;;
4428;SDS011;2227;47.810;8.810;2024-03-02T15:02:15;904.55;;;825.67;;
4428;SDS011;2227;47.810;8.810;2024-03-02T15:04:42;892.70;;;813.70;;
4428;SDS011;2227;47.810;8.810;2024-03-02T15:07:11;894.30;;;814.97;;
4428;SDS011;2227;47.810;8.810;2024-03-02T15:09:37;895.42;;;816.17;;
